createdAt,value
2018-11-07T00:01:24.228Z,10.10
2018-11-07T00:03:51.773Z,10.10
2018-11-07T00:06:19.233Z,10.00
2018-11-07T00:08:46.739Z,9.90
2018-11-07T00:11:14.177Z,10.00
2018-11-07T00:13:41.654Z,9.90
2018-11-07T00:16:09.103Z,9.80
2018-11-07T00:18:36.590Z,10.00
2018-11-07T00:21:04.194Z,10.00
2018-11-07T00:23:31.683Z,9.90
2018-11-07T00:26:00.878Z,9.80
2018-11-07T00:28:28.362Z,9.80
2018-11-07T00:30:55.826Z,9.70
2018-11-07T00:33:23.320Z,9.80
2018-11-07T00:35:50.815Z,9.70
2018-11-07T00:38:18.471Z,9.70
2018-11-07T00:40:46.008Z,9.60
2018-11-07T00:43:13.554Z,9.70
2018-11-07T00:45:41.078Z,9.60
2018-11-07T00:48:10.506Z,9.70
2018-11-07T00:50:40.526Z,9.70
2018-11-07T00:53:08.167Z,9.70
2018-11-07T00:55:42.366Z,9.60
2018-11-07T00:58:09.938Z,9.50
2018-11-07T01:00:38.595Z,9.30
2018-11-07T01:03:06.741Z,9.50
2018-11-07T01:05:34.174Z,9.40
2018-11-07T01:08:01.614Z,9.50
2018-11-07T01:10:29.016Z,9.50
2018-11-07T01:12:56.513Z,9.50
2018-11-07T01:15:24.039Z,9.60
2018-11-07T01:17:51.489Z,9.30
2018-11-07T01:20:18.935Z,9.40
2018-11-07T01:22:46.396Z,9.40
2018-11-07T01:25:14.499Z,9.40
2018-11-07T01:27:42.011Z,9.40
2018-11-07T01:30:11.246Z,9.50
2018-11-07T01:32:38.910Z,9.50
2018-11-07T01:35:06.785Z,9.40
2018-11-07T01:37:34.281Z,9.40
2018-11-07T01:40:01.943Z,9.30
2018-11-07T01:42:29.534Z,9.30
2018-11-07T01:44:57.035Z,9.30
2018-11-07T01:47:24.703Z,9.20
2018-11-07T01:49:52.202Z,8.90
2018-11-07T01:52:19.727Z,9.20
2018-11-07T01:54:47.222Z,9.30
2018-11-07T01:57:14.738Z,9.30
2018-11-07T01:59:42.227Z,9.20
2018-11-07T02:02:09.809Z,9.20
2018-11-07T02:04:37.304Z,9.30
2018-11-07T02:07:05.631Z,9.20
2018-11-07T02:09:33.198Z,9.20
2018-11-07T02:12:00.752Z,9.20
2018-11-07T02:14:28.207Z,9.20
2018-11-07T02:16:55.690Z,9.10
2018-11-07T02:19:23.235Z,9.20
2018-11-07T02:21:50.725Z,9.10
2018-11-07T02:24:18.246Z,9.10
2018-11-07T02:26:45.707Z,9.10
2018-11-07T02:29:14.454Z,9.00
2018-11-07T02:31:43.914Z,8.90
2018-11-07T02:34:12.024Z,8.90
2018-11-07T02:36:39.707Z,8.80
2018-11-07T02:39:09.916Z,8.70
2018-11-07T02:41:37.450Z,8.80
2018-11-07T02:44:05.083Z,8.80
2018-11-07T02:46:32.619Z,8.80
2018-11-07T02:49:00.258Z,8.80
2018-11-07T02:51:27.866Z,8.80
2018-11-07T02:53:55.365Z,8.80
2018-11-07T02:56:22.843Z,8.70
2018-11-07T02:58:50.318Z,8.70
2018-11-07T03:01:17.950Z,8.80
2018-11-07T03:03:45.228Z,8.70
2018-11-07T03:06:12.961Z,8.70
2018-11-07T03:08:40.547Z,8.70
2018-11-07T03:11:08.076Z,8.70
2018-11-07T03:13:35.561Z,8.60
2018-11-07T03:16:03.199Z,8.50
2018-11-07T03:18:30.695Z,8.40
2018-11-07T03:20:58.330Z,8.50
2018-11-07T03:23:26.010Z,8.50
2018-11-07T03:25:53.579Z,8.50
2018-11-07T03:28:21.263Z,8.50
2018-11-07T03:30:48.766Z,8.50
2018-11-07T03:33:16.522Z,8.40
2018-11-07T03:35:44.000Z,8.50
2018-11-07T03:38:11.462Z,8.50
2018-11-07T03:40:38.983Z,8.40
2018-11-07T03:43:06.646Z,8.40
2018-11-07T03:45:39.901Z,8.50
2018-11-07T03:48:07.691Z,8.40
2018-11-07T03:50:35.233Z,8.40
2018-11-07T03:53:02.747Z,8.30
2018-11-07T03:55:30.159Z,8.10
2018-11-07T03:57:58.438Z,8.30
2018-11-07T04:00:25.903Z,8.20
2018-11-07T04:02:53.498Z,8.20
2018-11-07T04:05:20.966Z,8.20
2018-11-07T04:07:48.457Z,8.20
2018-11-07T04:10:15.872Z,8.30
2018-11-07T04:12:43.349Z,8.20
2018-11-07T04:15:10.851Z,8.30
2018-11-07T04:17:38.362Z,8.30
2018-11-07T04:20:06.672Z,8.30
2018-11-07T04:22:34.121Z,8.40
2018-11-07T04:25:01.680Z,8.50
2018-11-07T04:27:29.264Z,8.40
2018-11-07T04:29:56.700Z,8.30
2018-11-07T04:32:24.233Z,8.30
2018-11-07T04:34:51.972Z,8.30
2018-11-07T04:37:19.477Z,8.20
2018-11-07T04:39:47.047Z,8.20
2018-11-07T04:42:14.494Z,8.20
2018-11-07T04:44:41.955Z,8.20
2018-11-07T04:47:09.419Z,8.20
2018-11-07T04:49:36.873Z,8.20
2018-11-07T04:52:04.407Z,8.20
2018-11-07T04:54:31.922Z,8.10
2018-11-07T04:56:59.463Z,8.10
2018-11-07T04:59:26.958Z,8.00
2018-11-07T05:01:54.415Z,8.10
2018-11-07T05:04:21.911Z,8.00
2018-11-07T05:06:49.419Z,8.00
2018-11-07T05:09:16.858Z,8.00
2018-11-07T05:11:44.291Z,8.00
2018-11-07T05:14:11.719Z,7.90
2018-11-07T05:16:39.251Z,8.00
2018-11-07T05:19:06.755Z,7.90
2018-11-07T05:21:34.311Z,7.80
2018-11-07T05:24:01.845Z,7.80
2018-11-07T05:26:29.311Z,7.80
2018-11-07T05:28:56.805Z,7.80
2018-11-07T05:31:24.648Z,7.80
2018-11-07T05:33:52.122Z,7.80
2018-11-07T05:36:19.688Z,7.80
2018-11-07T05:38:47.233Z,7.80
2018-11-07T05:41:14.825Z,7.90
2018-11-07T05:43:42.378Z,7.80
2018-11-07T05:46:09.878Z,7.80
2018-11-07T05:48:37.447Z,7.80
2018-11-07T05:51:04.967Z,7.80
2018-11-07T05:53:33.067Z,7.80
2018-11-07T05:56:00.532Z,7.80
2018-11-07T05:58:30.069Z,7.80
2018-11-07T06:00:57.562Z,7.80
2018-11-07T06:03:25.225Z,7.50
2018-11-07T06:05:52.737Z,7.70
2018-11-07T06:08:20.285Z,7.70
2018-11-07T06:10:47.833Z,7.80
2018-11-07T06:13:15.295Z,7.60
2018-11-07T06:15:42.939Z,7.60
2018-11-07T06:18:10.403Z,7.60
2018-11-07T06:20:38.195Z,7.60
2018-11-07T06:23:06.011Z,7.50
2018-11-07T06:25:33.434Z,7.50
2018-11-07T06:28:00.962Z,7.50
2018-11-07T06:30:29.072Z,7.50
2018-11-07T06:32:56.602Z,7.40
2018-11-07T06:35:24.885Z,7.50
2018-11-07T06:37:52.456Z,7.50
2018-11-07T06:40:19.948Z,7.50
2018-11-07T06:42:47.473Z,7.50
2018-11-07T06:45:15.062Z,7.40
2018-11-07T06:47:43.804Z,7.40
2018-11-07T06:50:13.552Z,7.30
2018-11-07T06:52:54.778Z,7.30
2018-11-07T06:55:25.311Z,7.00
2018-11-07T06:57:53.031Z,7.10
2018-11-07T07:00:20.695Z,7.20
2018-11-07T07:02:49.929Z,7.30
2018-11-07T07:05:18.852Z,7.20
2018-11-07T07:07:47.196Z,7.20
2018-11-07T07:10:16.786Z,7.10
2018-11-07T07:12:44.553Z,7.10
2018-11-07T07:15:13.630Z,7.30
2018-11-07T07:17:47.020Z,7.20
2018-11-07T07:20:20.423Z,7.30
2018-11-07T07:22:48.611Z,7.30
2018-11-07T07:25:17.999Z,7.30
2018-11-07T07:27:46.716Z,7.30
2018-11-07T07:30:18.821Z,7.40
2018-11-07T07:32:48.765Z,7.50
2018-11-07T07:35:17.073Z,7.30
2018-11-07T07:37:45.184Z,7.30
2018-11-07T07:40:14.713Z,7.40
2018-11-07T07:42:43.640Z,7.50
2018-11-07T07:45:13.319Z,7.50
2018-11-07T07:47:42.117Z,7.50
2018-11-07T07:50:11.717Z,7.60
2018-11-07T07:52:41.346Z,7.60
2018-11-07T07:55:10.098Z,7.60
2018-11-07T07:57:40.085Z,7.60
2018-11-07T08:00:14.129Z,7.60
2018-11-07T08:02:45.727Z,7.70
2018-11-07T08:05:13.691Z,7.60
2018-11-07T08:07:42.519Z,7.60
2018-11-07T08:10:17.397Z,7.70
2018-11-07T08:12:46.401Z,7.80
2018-11-07T08:18:03.949Z,7.80
2018-11-07T08:20:34.595Z,8.00
2018-11-07T08:23:03.358Z,7.30
2018-11-07T08:25:32.709Z,7.80
2018-11-07T08:28:02.176Z,7.90
2018-11-07T08:30:31.361Z,7.80
2018-11-07T08:33:04.976Z,7.90
2018-11-07T08:35:33.256Z,7.80
2018-11-07T08:38:01.436Z,7.90
2018-11-07T08:40:33.117Z,8.00
2018-11-07T08:43:03.463Z,8.30
2018-11-07T08:45:31.767Z,8.40
2018-11-07T08:48:09.581Z,8.40
2018-11-07T08:50:40.233Z,8.40
2018-11-07T08:53:13.364Z,8.30
2018-11-07T08:55:41.691Z,8.30
2018-11-07T08:58:20.561Z,8.90
2018-11-07T09:00:49.045Z,8.40
2018-11-07T09:03:21.991Z,8.00
2018-11-07T09:05:52.027Z,8.50
2018-11-07T09:08:20.503Z,8.70
2018-11-07T09:10:48.689Z,8.70
2018-11-07T09:13:18.261Z,8.70
2018-11-07T09:18:34.120Z,8.70
2018-11-07T09:21:07.301Z,8.80
2018-11-07T09:23:35.522Z,8.80
2018-11-07T09:26:15.072Z,8.90
2018-11-07T09:31:31.456Z,9.10
2018-11-07T09:34:00.113Z,9.30
2018-11-07T09:36:29.153Z,9.10
2018-11-07T09:39:04.330Z,9.20
2018-11-07T09:41:42.468Z,9.30
2018-11-07T09:46:57.421Z,9.60
2018-11-07T09:49:26.884Z,9.70
2018-11-07T09:51:55.201Z,9.70
2018-11-07T09:54:30.518Z,9.60
2018-11-07T09:56:58.832Z,9.70
2018-11-07T09:59:27.999Z,9.80
2018-11-07T10:01:56.991Z,9.90
2018-11-07T10:04:31.057Z,10.10
2018-11-07T10:07:00.481Z,10.10
2018-11-07T10:09:28.878Z,10.00
2018-11-07T10:11:57.935Z,10.20
2018-11-07T10:14:27.124Z,10.10
2018-11-07T10:16:58.187Z,10.20
2018-11-07T10:22:14.593Z,10.30
2018-11-07T10:24:48.194Z,10.40
2018-11-07T10:27:17.437Z,11.20
2018-11-07T10:29:48.636Z,10.50
2018-11-07T10:32:16.032Z,10.60
2018-11-07T10:34:43.938Z,10.60
2018-11-07T10:37:32.141Z,10.60
2018-11-07T10:39:49.690Z,10.50
2018-11-07T10:42:18.003Z,10.70
2018-11-07T10:44:52.106Z,10.80
2018-11-07T10:47:19.843Z,10.80
2018-11-07T10:49:48.523Z,10.90
2018-11-07T10:52:17.052Z,10.80
2018-11-07T10:54:45.801Z,10.90
2018-11-07T10:57:14.632Z,10.90
2018-11-07T10:59:43.340Z,11.00
2018-11-07T11:02:20.585Z,11.00
2018-11-07T11:04:49.265Z,11.10
2018-11-07T11:07:19.393Z,11.10
2018-11-07T11:09:48.538Z,11.20
2018-11-07T11:12:16.623Z,11.30
2018-11-07T11:14:45.223Z,11.30
2018-11-07T11:17:16.020Z,11.30
2018-11-07T11:19:43.956Z,11.40
2018-11-07T11:22:12.437Z,11.40
2018-11-07T11:24:41.562Z,11.40
2018-11-07T11:27:12.606Z,11.40
2018-11-07T11:29:40.206Z,11.50
2018-11-07T11:32:11.320Z,11.60
2018-11-07T11:34:39.778Z,12.00
2018-11-07T11:37:09.168Z,11.80
2018-11-07T11:39:41.401Z,11.90
2018-11-07T11:42:10.294Z,12.00
2018-11-07T11:44:38.697Z,12.10
2018-11-07T11:47:07.329Z,12.30
2018-11-07T11:49:35.367Z,12.30
2018-11-07T11:52:03.039Z,12.30
2018-11-07T11:54:35.339Z,12.40
2018-11-07T11:57:03.002Z,12.40
2018-11-07T11:59:31.697Z,12.40
2018-11-07T12:02:05.793Z,12.50
2018-11-07T12:04:33.360Z,12.50
2018-11-07T12:07:01.700Z,12.50
2018-11-07T12:09:33.475Z,12.60
2018-11-07T12:12:01.145Z,12.60
2018-11-07T12:14:28.818Z,12.70
2018-11-07T12:16:57.067Z,12.70
2018-11-07T12:19:26.608Z,12.80
2018-11-07T12:22:00.601Z,12.80
2018-11-07T12:24:29.279Z,12.80
2018-11-07T12:27:00.295Z,12.80
2018-11-07T12:29:28.313Z,12.80
2018-11-07T12:31:56.721Z,12.90
2018-11-07T12:34:26.472Z,12.90
2018-11-07T12:36:55.116Z,13.00
2018-11-07T12:39:28.308Z,13.00
2018-11-07T12:41:55.998Z,13.10
2018-11-07T12:44:29.040Z,13.10
2018-11-07T12:46:59.055Z,13.10
2018-11-07T12:49:26.669Z,13.20
2018-11-07T12:51:58.279Z,13.10
2018-11-07T12:54:33.278Z,13.20
2018-11-07T12:57:02.199Z,13.20
2018-11-07T12:59:32.339Z,13.20
2018-11-07T13:02:00.281Z,13.30
2018-11-07T13:04:28.781Z,13.40
2018-11-07T13:06:57.592Z,13.60
2018-11-07T13:09:26.219Z,13.50
2018-11-07T13:11:54.491Z,13.50
2018-11-07T13:14:26.623Z,13.50
2018-11-07T13:16:54.772Z,13.60
2018-11-07T13:19:27.312Z,13.60
2018-11-07T13:21:56.530Z,13.60
2018-11-07T13:24:28.323Z,13.40
2018-11-07T13:27:02.580Z,13.60
2018-11-07T13:29:31.122Z,13.80
2018-11-07T13:31:59.579Z,13.90
2018-11-07T13:34:27.236Z,13.80
2018-11-07T13:37:02.906Z,13.70
2018-11-07T13:39:30.999Z,13.80
2018-11-07T13:42:00.554Z,13.80
2018-11-07T13:44:29.275Z,13.90
2018-11-07T13:46:56.882Z,13.90
2018-11-07T13:49:24.973Z,14.00
2018-11-07T13:51:52.701Z,14.00
2018-11-07T13:54:22.133Z,14.10
2018-11-07T13:56:52.686Z,14.00
2018-11-07T13:59:20.424Z,14.00
2018-11-07T14:01:50.193Z,14.00
2018-11-07T14:04:17.920Z,14.10
2018-11-07T14:07:03.489Z,14.10
2018-11-07T14:09:31.373Z,14.10
2018-11-07T14:12:02.172Z,14.00
2018-11-07T14:14:29.889Z,14.20
2018-11-07T14:17:04.827Z,14.10
2018-11-07T14:19:33.830Z,14.10
2018-11-07T14:22:02.132Z,14.00
2018-11-07T14:24:29.825Z,13.90
2018-11-07T14:26:57.492Z,14.00
2018-11-07T14:29:25.584Z,13.90
2018-11-07T14:31:55.761Z,13.90
2018-11-07T14:34:24.919Z,13.80
2018-11-07T14:37:09.532Z,13.90
2018-11-07T14:39:37.083Z,13.80
2018-11-07T14:42:05.170Z,13.70
2018-11-07T14:44:32.844Z,13.70
2018-11-07T14:47:10.810Z,13.50
2018-11-07T14:49:38.360Z,13.60
2018-11-07T14:52:08.748Z,13.60
2018-11-07T14:54:36.431Z,13.50
2018-11-07T14:57:04.464Z,13.50
2018-11-07T14:59:35.419Z,13.50
2018-11-07T15:02:03.455Z,13.50
2018-11-07T15:04:35.736Z,13.50
2018-11-07T15:07:04.194Z,13.50
2018-11-07T15:09:32.726Z,13.40
2018-11-07T15:12:01.473Z,13.40
2018-11-07T15:14:29.547Z,13.30
2018-11-07T15:16:57.376Z,13.10
2018-11-07T15:19:26.235Z,13.20
2018-11-07T15:21:54.003Z,13.10
2018-11-07T15:24:21.651Z,13.10
2018-11-07T15:26:49.715Z,13.00
2018-11-07T15:29:18.396Z,12.90
2018-11-07T15:31:46.292Z,12.90
2018-11-07T15:34:13.901Z,12.80
2018-11-07T15:36:41.930Z,12.70
2018-11-07T15:39:12.255Z,12.60
2018-11-07T15:41:44.558Z,12.50
2018-11-07T15:44:12.834Z,12.50
2018-11-07T15:46:41.858Z,12.40
2018-11-07T15:49:09.417Z,12.30
2018-11-07T15:51:38.632Z,12.20
2018-11-07T15:54:07.405Z,12.10
2018-11-07T15:56:40.724Z,12.00
2018-11-07T15:59:10.953Z,12.00
2018-11-07T16:01:39.710Z,11.90
2018-11-07T16:04:17.246Z,11.80
2018-11-07T16:06:51.336Z,11.80
2018-11-07T16:09:20.078Z,11.70
2018-11-07T16:11:49.059Z,11.70
2018-11-07T16:14:16.870Z,11.60
2018-11-07T16:16:45.091Z,11.30
2018-11-07T16:19:13.279Z,11.50
2018-11-07T16:21:40.868Z,11.40
2018-11-07T16:24:28.013Z,11.40
2018-11-07T16:26:56.020Z,11.30
2018-11-07T16:29:23.672Z,11.20
2018-11-07T16:31:53.570Z,11.20
2018-11-07T16:34:21.838Z,11.10
2018-11-07T16:36:55.683Z,11.30
2018-11-07T16:39:24.365Z,11.10
2018-11-07T16:41:52.601Z,11.10
2018-11-07T16:44:23.629Z,11.10
2018-11-07T16:46:52.460Z,11.10
2018-11-07T16:49:20.916Z,11.10
2018-11-07T16:51:48.589Z,11.20
2018-11-07T16:54:19.202Z,11.20
2018-11-07T16:56:49.560Z,11.20
2018-11-07T16:59:18.128Z,11.20
2018-11-07T17:01:49.195Z,11.20
2018-11-07T17:04:17.250Z,11.20
2018-11-07T17:06:45.616Z,11.30
2018-11-07T17:09:14.037Z,11.20
2018-11-07T17:11:42.769Z,11.20
2018-11-07T17:14:14.960Z,11.30
2018-11-07T17:16:44.956Z,11.30
2018-11-07T17:19:13.068Z,11.30
2018-11-07T17:21:41.448Z,11.30
2018-11-07T17:24:09.506Z,11.30
2018-11-07T17:26:38.157Z,11.20
2018-11-07T17:29:07.446Z,11.30
2018-11-07T17:31:40.553Z,11.40
2018-11-07T17:34:09.251Z,11.40
2018-11-07T17:36:37.855Z,11.40
2018-11-07T17:39:09.179Z,11.50
2018-11-07T17:41:37.614Z,11.60
2018-11-07T17:44:05.571Z,11.70
2018-11-07T17:46:33.863Z,11.70
2018-11-07T17:49:02.246Z,11.70
2018-11-07T17:51:30.267Z,11.70
2018-11-07T17:54:00.825Z,11.70
2018-11-07T17:56:28.916Z,11.70
2018-11-07T17:58:58.679Z,11.60
2018-11-07T18:01:49.318Z,11.60
2018-11-07T18:04:23.203Z,11.60
2018-11-07T18:06:50.845Z,11.50
2018-11-07T18:09:21.045Z,11.60
2018-11-07T18:11:50.563Z,11.80
2018-11-07T18:14:22.647Z,11.50
2018-11-07T18:16:50.693Z,11.50
2018-11-07T18:19:19.573Z,11.50
2018-11-07T18:21:47.156Z,11.40
2018-11-07T18:24:16.695Z,11.50
2018-11-07T18:26:44.635Z,11.40
2018-11-07T18:29:13.576Z,11.50
2018-11-07T18:31:42.510Z,11.20
2018-11-07T18:34:10.240Z,11.40
2018-11-07T18:36:43.119Z,11.40
2018-11-07T18:39:12.583Z,11.50
2018-11-07T18:41:46.219Z,11.50
2018-11-07T18:44:15.464Z,11.50
2018-11-07T18:46:43.493Z,11.40
2018-11-07T18:49:11.481Z,11.40
2018-11-07T18:51:41.092Z,11.40
2018-11-07T18:54:09.248Z,11.40
2018-11-07T18:56:38.032Z,11.40
2018-11-07T18:59:07.744Z,11.40
2018-11-07T19:01:37.531Z,11.30
2018-11-07T19:04:05.907Z,11.40
2018-11-07T19:06:39.811Z,11.30
2018-11-07T19:09:12.486Z,11.40
2018-11-07T19:11:40.991Z,11.40
2018-11-07T19:14:13.603Z,11.50
2018-11-07T19:16:41.244Z,11.50
2018-11-07T19:19:09.999Z,11.50
2018-11-07T19:21:38.234Z,11.50
2018-11-07T19:24:05.964Z,11.50
2018-11-07T19:26:34.302Z,11.60
2018-11-07T19:29:04.280Z,11.60
2018-11-07T19:31:37.196Z,11.70
2018-11-07T19:34:05.509Z,11.70
2018-11-07T19:36:34.923Z,11.70
2018-11-07T19:39:04.430Z,11.70
2018-11-07T19:41:36.943Z,11.70
2018-11-07T19:44:04.978Z,11.30
2018-11-07T19:46:37.452Z,11.60
2018-11-07T19:49:08.859Z,11.60
2018-11-07T19:51:47.347Z,11.60
2018-11-07T19:54:15.379Z,11.60
2018-11-07T19:56:43.400Z,11.60
2018-11-07T19:59:19.219Z,11.50
2018-11-07T20:01:48.391Z,11.50
2018-11-07T20:04:16.179Z,11.50
2018-11-07T20:06:49.264Z,11.40
2018-11-07T20:09:17.926Z,11.50
2018-11-07T20:11:45.557Z,11.50
2018-11-07T20:14:15.427Z,11.70
2018-11-07T20:16:44.982Z,11.50
2018-11-07T20:19:13.450Z,11.50
2018-11-07T20:21:41.126Z,11.50
2018-11-07T20:24:10.103Z,11.50
2018-11-07T20:26:38.084Z,11.50
2018-11-07T20:29:06.126Z,11.50
2018-11-07T20:31:34.515Z,11.50
2018-11-07T20:34:04.132Z,11.50
2018-11-07T20:36:31.640Z,11.50
2018-11-07T20:38:59.727Z,11.50
2018-11-07T20:41:27.604Z,11.50
2018-11-07T20:43:56.332Z,11.40
2018-11-07T20:46:23.858Z,11.50
2018-11-07T20:48:51.479Z,11.50
2018-11-07T20:51:18.972Z,11.50
2018-11-07T20:53:46.594Z,11.50
2018-11-07T20:56:14.156Z,11.50
2018-11-07T20:58:41.743Z,11.50
2018-11-07T21:01:09.276Z,11.40
2018-11-07T21:03:36.980Z,11.50
2018-11-07T21:06:04.654Z,11.50
2018-11-07T21:08:32.217Z,11.50
2018-11-07T21:10:59.780Z,11.50
2018-11-07T21:13:27.523Z,11.50
2018-11-07T21:15:55.072Z,11.50
2018-11-07T21:18:22.581Z,11.50
2018-11-07T21:20:50.036Z,11.50
2018-11-07T21:23:17.664Z,11.50
2018-11-07T21:25:46.315Z,11.50
2018-11-07T21:28:13.930Z,11.50
2018-11-07T21:30:42.647Z,11.50
2018-11-07T21:33:10.791Z,11.40
2018-11-07T21:35:38.566Z,11.30
2018-11-07T21:38:06.978Z,11.50
2018-11-07T21:40:35.498Z,11.50
2018-11-07T21:43:03.337Z,11.50
2018-11-07T21:45:31.509Z,11.50
2018-11-07T21:47:59.941Z,11.50
2018-11-07T21:50:29.519Z,11.50
2018-11-07T21:52:57.916Z,11.50
2018-11-07T21:55:28.295Z,11.50
2018-11-07T21:57:55.947Z,11.40
2018-11-07T22:00:25.545Z,11.50
2018-11-07T22:02:54.371Z,11.60
2018-11-07T22:05:22.767Z,11.50
2018-11-07T22:07:51.568Z,11.40
2018-11-07T22:10:20.250Z,11.40
2018-11-07T22:12:48.555Z,11.40
2018-11-07T22:15:17.108Z,11.40
2018-11-07T22:17:44.975Z,11.40
2018-11-07T22:20:17.646Z,11.60
2018-11-07T22:22:46.661Z,11.40
2018-11-07T22:25:16.418Z,11.40
2018-11-07T22:27:44.341Z,11.40
2018-11-07T22:30:13.727Z,11.40
2018-11-07T22:32:42.200Z,11.50
2018-11-07T22:35:13.796Z,11.40
2018-11-07T22:37:41.806Z,11.30
2018-11-07T22:40:11.334Z,11.40
2018-11-07T22:42:39.231Z,11.70
2018-11-07T22:45:07.352Z,11.00
2018-11-07T22:47:35.652Z,11.40
2018-11-07T22:50:03.403Z,11.30
2018-11-07T22:52:31.358Z,11.40
2018-11-07T22:54:59.107Z,11.40
2018-11-07T22:57:26.896Z,11.30
2018-11-07T22:59:54.650Z,11.30
2018-11-07T23:02:22.337Z,11.30
2018-11-07T23:04:50.460Z,11.30
2018-11-07T23:07:18.225Z,11.30
2018-11-07T23:09:45.899Z,11.30
2018-11-07T23:12:13.600Z,11.30
2018-11-07T23:14:41.441Z,11.30
2018-11-07T23:17:09.571Z,11.30
2018-11-07T23:19:37.665Z,11.30
2018-11-07T23:22:05.514Z,11.30
2018-11-07T23:24:33.175Z,11.30
2018-11-07T23:27:00.987Z,11.30
2018-11-07T23:29:28.693Z,11.30
2018-11-07T23:31:56.190Z,11.30
2018-11-07T23:34:23.767Z,11.30
2018-11-07T23:36:51.470Z,11.20
2018-11-07T23:39:18.988Z,11.10
2018-11-07T23:41:46.464Z,11.30
2018-11-07T23:44:13.990Z,11.30
2018-11-07T23:46:41.626Z,11.30
2018-11-07T23:49:09.146Z,11.30
2018-11-07T23:51:41.259Z,11.30
2018-11-07T23:54:08.769Z,11.30
2018-11-07T23:56:36.217Z,11.30
2018-11-07T23:59:03.856Z,11.30
